CheckWX is a tool to help pilots better visualize weather data.  It is not intended as a substitute for an official pre-flight weather briefing.

05:14:26 UTC

CYZS METAR
Coral Harbour Airport
Coral Harbour, Canada
Current

14 mins ago

CYZS 240500Z 02007KT 15SM IC BKN015 M28/M32 A2994 RMK SC5 SLP151
Observed
Feb-24 @ 05:00 UTC
Wind
  • 020° at 7 KTS
Visibility
15 SM
Flight Rules
MVFR
Conditions
Ice crystals
Cloud Levels
  • Broken at 1,500' AGL
Temperature
-28°C / -18°F
Dewpoint
-32°C / -26°F
Humidity
69%
Altimeter
29.94" Hg
Pressure
1015.1 hPa
Previous

1 hour ago

CYZS 240400Z 03010KT 15SM IC SCT015 M28/M32 A2994 RMK SC3 SLP151
Observed
Feb-24 @ 04:00 UTC
Wind
  • 030° at 10 KTS
Visibility
15 SM
Flight Rules
VFR
Conditions
Ice crystals
Cloud Levels
  • Scattered at 1,500' AGL
Temperature
-28°C / -18°F
Dewpoint
-32°C / -26°F
Humidity
69%
Altimeter
29.94" Hg
Pressure
1015.1 hPa
Previous

2 hours ago

CYZS 240300Z 02010KT 15SM IC SCT016 M30/M33 A2993 RMK SC3 SLP149
Observed
Feb-24 @ 03:00 UTC
Wind
  • 020° at 10 KTS
Visibility
15 SM
Flight Rules
VFR
Conditions
Ice crystals
Cloud Levels
  • Scattered at 1,600' AGL
Temperature
-30°C / -22°F
Dewpoint
-33°C / -27°F
Humidity
75%
Altimeter
29.93" Hg
Pressure
1014.9 hPa